sensor_id;sensor_type;location;lat;lon;timestamp;P1;durP1;ratioP1;P2;durP2;ratioP2
12650;SDS011;6390;49.400;8.670;2023-02-24T00:01:59;12.45;;;9.52;;
12650;SDS011;6390;49.400;8.670;2023-02-24T00:04:30;13.13;;;8.88;;
12650;SDS011;6390;49.400;8.670;2023-02-24T00:06:59;14.25;;;9.80;;
12650;SDS011;6390;49.400;8.670;2023-02-24T00:09:27;14.43;;;10.40;;
12650;SDS011;6390;49.400;8.670;2023-02-24T00:12:05;13.88;;;9.55;;
12650;SDS011;6390;49.400;8.670;2023-02-24T00:14:35;13.50;;;9.68;;
12650;SDS011;6390;49.400;8.670;2023-02-24T00:17:03;15.75;;;10.00;;
12650;SDS011;6390;49.400;8.670;2023-02-24T00:19:34;15.75;;;10.68;;
12650;SDS011;6390;49.400;8.670;2023-02-24T00:22:01;15.02;;;9.68;;
12650;SDS011;6390;49.400;8.670;2023-02-24T00:24:29;13.95;;;9.63;;
12650;SDS011;6390;49.400;8.670;2023-02-24T00:26:57;13.70;;;10.18;;
12650;SDS011;6390;49.400;8.670;2023-02-24T00:29:25;15.70;;;9.65;;
12650;SDS011;6390;49.400;8.670;2023-02-24T00:31:53;13.05;;;9.35;;
12650;SDS011;6390;49.400;8.670;2023-02-24T00:34:25;15.13;;;10.23;;
12650;SDS011;6390;49.400;8.670;2023-02-24T00:36:55;13.68;;;9.52;;
12650;SDS011;6390;49.400;8.670;2023-02-24T00:39:22;14.75;;;9.65;;
12650;SDS011;6390;49.400;8.670;2023-02-24T00:41:54;13.70;;;8.95;;
12650;SDS011;6390;49.400;8.670;2023-02-24T00:44:50;14.05;;;9.25;;
12650;SDS011;6390;49.400;8.670;2023-02-24T00:47:17;15.95;;;9.73;;
12650;SDS011;6390;49.400;8.670;2023-02-24T00:49:44;14.40;;;9.45;;
12650;SDS011;6390;49.400;8.670;2023-02-24T00:52:11;14.68;;;9.15;;
12650;SDS011;6390;49.400;8.670;2023-02-24T00:54:43;13.85;;;8.45;;
12650;SDS011;6390;49.400;8.670;2023-02-24T00:57:11;16.48;;;9.93;;
12650;SDS011;6390;49.400;8.670;2023-02-24T00:59:38;14.48;;;8.95;;
12650;SDS011;6390;49.400;8.670;2023-02-24T01:02:04;14.52;;;9.43;;
12650;SDS011;6390;49.400;8.670;2023-02-24T01:04:31;13.90;;;9.32;;
12650;SDS011;6390;49.400;8.670;2023-02-24T01:06:58;14.77;;;9.90;;
12650;SDS011;6390;49.400;8.670;2023-02-24T01:09:26;14.05;;;9.32;;
12650;SDS011;6390;49.400;8.670;2023-02-24T01:11:54;14.98;;;9.52;;
12650;SDS011;6390;49.400;8.670;2023-02-24T01:14:39;14.23;;;9.30;;
12650;SDS011;6390;49.400;8.670;2023-02-24T01:17:07;14.50;;;9.57;;
12650;SDS011;6390;49.400;8.670;2023-02-24T01:19:34;14.77;;;9.52;;
12650;SDS011;6390;49.400;8.670;2023-02-24T01:22:01;16.65;;;9.93;;
12650;SDS011;6390;49.400;8.670;2023-02-24T01:24:31;13.88;;;9.32;;
12650;SDS011;6390;49.400;8.670;2023-02-24T01:26:59;14.48;;;9.88;;
12650;SDS011;6390;49.400;8.670;2023-02-24T01:29:26;15.13;;;9.40;;
12650;SDS011;6390;49.400;8.670;2023-02-24T01:31:52;14.68;;;9.65;;
12650;SDS011;6390;49.400;8.670;2023-02-24T01:34:22;13.55;;;9.50;;
12650;SDS011;6390;49.400;8.670;2023-02-24T01:36:49;14.05;;;9.55;;
12650;SDS011;6390;49.400;8.670;2023-02-24T01:39:16;13.88;;;9.02;;
12650;SDS011;6390;49.400;8.670;2023-02-24T01:41:43;15.18;;;9.20;;
12650;SDS011;6390;49.400;8.670;2023-02-24T01:46:47;14.32;;;9.40;;
12650;SDS011;6390;49.400;8.670;2023-02-24T01:52:02;14.50;;;9.32;;
12650;SDS011;6390;49.400;8.670;2023-02-24T01:57:40;14.43;;;8.93;;
12650;SDS011;6390;49.400;8.670;2023-02-24T02:00:09;14.95;;;8.75;;
12650;SDS011;6390;49.400;8.670;2023-02-24T02:02:44;13.80;;;8.75;;
12650;SDS011;6390;49.400;8.670;2023-02-24T02:05:14;15.18;;;8.70;;
12650;SDS011;6390;49.400;8.670;2023-02-24T02:07:40;14.25;;;8.70;;
12650;SDS011;6390;49.400;8.670;2023-02-24T02:10:07;14.55;;;9.13;;
12650;SDS011;6390;49.400;8.670;2023-02-24T02:12:37;16.15;;;9.77;;
12650;SDS011;6390;49.400;8.670;2023-02-24T02:15:08;17.75;;;9.57;;
12650;SDS011;6390;49.400;8.670;2023-02-24T02:30:32;17.13;;;10.30;;
12650;SDS011;6390;49.400;8.670;2023-02-24T02:36:19;14.35;;;8.82;;
12650;SDS011;6390;49.400;8.670;2023-02-24T02:41:50;16.92;;;9.68;;
12650;SDS011;6390;49.400;8.670;2023-02-24T02:44:39;16.05;;;9.68;;
12650;SDS011;6390;49.400;8.670;2023-02-24T02:47:24;16.58;;;9.93;;
12650;SDS011;6390;49.400;8.670;2023-02-24T02:52:58;17.80;;;11.60;;
12650;SDS011;6390;49.400;8.670;2023-02-24T02:55:53;17.17;;;10.43;;
12650;SDS011;6390;49.400;8.670;2023-02-24T02:58:29;16.10;;;10.43;;
12650;SDS011;6390;49.400;8.670;2023-02-24T03:00:59;17.52;;;10.82;;
12650;SDS011;6390;49.400;8.670;2023-02-24T03:03:34;17.27;;;10.93;;
12650;SDS011;6390;49.400;8.670;2023-02-24T03:06:11;17.45;;;10.25;;
12650;SDS011;6390;49.400;8.670;2023-02-24T03:08:53;18.98;;;11.10;;
12650;SDS011;6390;49.400;8.670;2023-02-24T03:11:39;15.57;;;10.18;;
12650;SDS011;6390;49.400;8.670;2023-02-24T03:14:07;17.38;;;10.90;;
12650;SDS011;6390;49.400;8.670;2023-02-24T03:16:37;16.92;;;10.57;;
12650;SDS011;6390;49.400;8.670;2023-02-24T03:19:05;17.17;;;10.23;;
12650;SDS011;6390;49.400;8.670;2023-02-24T03:21:35;16.25;;;10.15;;
12650;SDS011;6390;49.400;8.670;2023-02-24T03:24:09;17.60;;;10.80;;
12650;SDS011;6390;49.400;8.670;2023-02-24T03:26:46;17.30;;;10.32;;
12650;SDS011;6390;49.400;8.670;2023-02-24T03:29:49;16.15;;;9.80;;
12650;SDS011;6390;49.400;8.670;2023-02-24T03:35:00;16.10;;;10.32;;
12650;SDS011;6390;49.400;8.670;2023-02-24T03:37:31;17.25;;;10.05;;
12650;SDS011;6390;49.400;8.670;2023-02-24T03:39:58;17.50;;;10.73;;
12650;SDS011;6390;49.400;8.670;2023-02-24T03:42:39;17.38;;;11.25;;
12650;SDS011;6390;49.400;8.670;2023-02-24T03:45:09;17.70;;;10.32;;
12650;SDS011;6390;49.400;8.670;2023-02-24T03:47:35;16.30;;;10.13;;
12650;SDS011;6390;49.400;8.670;2023-02-24T03:50:08;16.48;;;10.02;;
12650;SDS011;6390;49.400;8.670;2023-02-24T03:55:16;16.48;;;9.93;;
12650;SDS011;6390;49.400;8.670;2023-02-24T03:58:16;15.02;;;9.88;;
12650;SDS011;6390;49.400;8.670;2023-02-24T04:01:09;18.63;;;10.07;;
12650;SDS011;6390;49.400;8.670;2023-02-24T04:03:59;18.02;;;10.82;;
12650;SDS011;6390;49.400;8.670;2023-02-24T04:18:15;17.40;;;10.55;;
12650;SDS011;6390;49.400;8.670;2023-02-24T04:20:51;15.98;;;9.35;;
12650;SDS011;6390;49.400;8.670;2023-02-24T04:23:30;19.27;;;10.40;;
12650;SDS011;6390;49.400;8.670;2023-02-24T04:26:02;16.35;;;10.05;;
12650;SDS011;6390;49.400;8.670;2023-02-24T04:28:30;15.68;;;9.63;;
12650;SDS011;6390;49.400;8.670;2023-02-24T04:30:57;16.95;;;9.82;;
12650;SDS011;6390;49.400;8.670;2023-02-24T04:33:33;17.00;;;10.73;;
12650;SDS011;6390;49.400;8.670;2023-02-24T04:36:00;17.30;;;10.27;;
12650;SDS011;6390;49.400;8.670;2023-02-24T04:38:26;16.67;;;10.30;;
12650;SDS011;6390;49.400;8.670;2023-02-24T04:40:52;17.17;;;10.27;;
12650;SDS011;6390;49.400;8.670;2023-02-24T04:43:18;16.98;;;10.18;;
12650;SDS011;6390;49.400;8.670;2023-02-24T04:45:44;15.50;;;9.77;;
12650;SDS011;6390;49.400;8.670;2023-02-24T04:48:11;15.95;;;9.30;;
12650;SDS011;6390;49.400;8.670;2023-02-24T04:50:38;15.52;;;9.70;;
12650;SDS011;6390;49.400;8.670;2023-02-24T04:53:08;19.85;;;10.00;;
12650;SDS011;6390;49.400;8.670;2023-02-24T04:55:44;16.20;;;9.07;;
12650;SDS011;6390;49.400;8.670;2023-02-24T04:58:13;14.98;;;9.40;;
12650;SDS011;6390;49.400;8.670;2023-02-24T05:00:43;18.17;;;10.10;;
12650;SDS011;6390;49.400;8.670;2023-02-24T05:03:13;19.27;;;10.43;;
12650;SDS011;6390;49.400;8.670;2023-02-24T05:05:46;17.70;;;9.75;;
12650;SDS011;6390;49.400;8.670;2023-02-24T05:08:16;14.75;;;8.85;;
12650;SDS011;6390;49.400;8.670;2023-02-24T05:10:43;17.70;;;9.88;;
12650;SDS011;6390;49.400;8.670;2023-02-24T05:13:12;17.67;;;10.35;;
12650;SDS011;6390;49.400;8.670;2023-02-24T05:15:45;17.25;;;10.13;;
12650;SDS011;6390;49.400;8.670;2023-02-24T05:18:13;16.20;;;9.95;;
12650;SDS011;6390;49.400;8.670;2023-02-24T05:20:51;18.38;;;10.75;;
12650;SDS011;6390;49.400;8.670;2023-02-24T05:23:39;15.90;;;9.05;;
12650;SDS011;6390;49.400;8.670;2023-02-24T05:26:11;15.30;;;9.40;;
12650;SDS011;6390;49.400;8.670;2023-02-24T05:28:40;16.92;;;9.65;;
12650;SDS011;6390;49.400;8.670;2023-02-24T05:31:14;17.13;;;9.65;;
12650;SDS011;6390;49.400;8.670;2023-02-24T05:33:43;16.50;;;10.05;;
12650;SDS011;6390;49.400;8.670;2023-02-24T05:36:13;16.17;;;9.18;;
12650;SDS011;6390;49.400;8.670;2023-02-24T05:38:42;15.43;;;8.80;;
12650;SDS011;6390;49.400;8.670;2023-02-24T05:41:11;15.60;;;8.90;;
12650;SDS011;6390;49.400;8.670;2023-02-24T05:43:46;18.10;;;9.82;;
12650;SDS011;6390;49.400;8.670;2023-02-24T05:46:22;17.67;;;10.35;;
12650;SDS011;6390;49.400;8.670;2023-02-24T05:49:14;17.95;;;10.10;;
12650;SDS011;6390;49.400;8.670;2023-02-24T05:51:47;18.15;;;10.48;;
12650;SDS011;6390;49.400;8.670;2023-02-24T05:54:21;17.20;;;9.73;;
12650;SDS011;6390;49.400;8.670;2023-02-24T05:56:58;18.33;;;9.68;;
12650;SDS011;6390;49.400;8.670;2023-02-24T05:59:42;15.23;;;9.10;;
12650;SDS011;6390;49.400;8.670;2023-02-24T06:02:10;14.65;;;8.55;;
12650;SDS011;6390;49.400;8.670;2023-02-24T06:04:39;16.45;;;9.35;;
12650;SDS011;6390;49.400;8.670;2023-02-24T06:07:21;17.05;;;9.73;;
12650;SDS011;6390;49.400;8.670;2023-02-24T06:09:51;15.98;;;9.65;;
12650;SDS011;6390;49.400;8.670;2023-02-24T06:12:23;16.38;;;9.82;;
12650;SDS011;6390;49.400;8.670;2023-02-24T06:14:54;15.80;;;9.90;;
12650;SDS011;6390;49.400;8.670;2023-02-24T06:17:22;15.55;;;9.32;;
12650;SDS011;6390;49.400;8.670;2023-02-24T06:19:49;16.08;;;9.40;;
12650;SDS011;6390;49.400;8.670;2023-02-24T06:22:18;14.05;;;9.02;;
12650;SDS011;6390;49.400;8.670;2023-02-24T06:24:47;18.35;;;9.15;;
12650;SDS011;6390;49.400;8.670;2023-02-24T06:27:14;14.63;;;8.40;;
12650;SDS011;6390;49.400;8.670;2023-02-24T06:29:45;15.45;;;9.18;;
12650;SDS011;6390;49.400;8.670;2023-02-24T06:32:16;17.15;;;9.48;;
12650;SDS011;6390;49.400;8.670;2023-02-24T06:34:44;14.27;;;8.82;;
12650;SDS011;6390;49.400;8.670;2023-02-24T06:37:11;16.65;;;9.45;;
12650;SDS011;6390;49.400;8.670;2023-02-24T06:39:39;17.23;;;9.60;;
12650;SDS011;6390;49.400;8.670;2023-02-24T06:42:06;16.27;;;8.95;;
12650;SDS011;6390;49.400;8.670;2023-02-24T06:44:35;15.65;;;9.23;;
12650;SDS011;6390;49.400;8.670;2023-02-24T06:47:02;17.13;;;9.55;;
12650;SDS011;6390;49.400;8.670;2023-02-24T06:49:31;17.58;;;9.60;;
12650;SDS011;6390;49.400;8.670;2023-02-24T06:51:57;15.98;;;9.38;;
12650;SDS011;6390;49.400;8.670;2023-02-24T06:54:24;16.30;;;9.05;;
12650;SDS011;6390;49.400;8.670;2023-02-24T06:56:54;17.90;;;9.73;;
12650;SDS011;6390;49.400;8.670;2023-02-24T06:59:25;16.60;;;9.77;;
12650;SDS011;6390;49.400;8.670;2023-02-24T07:01:54;16.27;;;9.48;;
12650;SDS011;6390;49.400;8.670;2023-02-24T07:04:25;20.52;;;10.27;;
12650;SDS011;6390;49.400;8.670;2023-02-24T07:06:58;19.25;;;9.25;;
12650;SDS011;6390;49.400;8.670;2023-02-24T07:09:28;17.23;;;9.50;;
12650;SDS011;6390;49.400;8.670;2023-02-24T07:11:54;16.92;;;9.40;;
12650;SDS011;6390;49.400;8.670;2023-02-24T07:14:23;18.85;;;9.85;;
12650;SDS011;6390;49.400;8.670;2023-02-24T07:16:51;18.25;;;9.90;;
12650;SDS011;6390;49.400;8.670;2023-02-24T07:19:19;18.10;;;9.75;;
12650;SDS011;6390;49.400;8.670;2023-02-24T07:21:48;15.63;;;8.93;;
12650;SDS011;6390;49.400;8.670;2023-02-24T07:24:17;17.95;;;9.85;;
12650;SDS011;6390;49.400;8.670;2023-02-24T07:26:55;14.98;;;8.60;;
12650;SDS011;6390;49.400;8.670;2023-02-24T07:29:24;16.60;;;9.93;;
12650;SDS011;6390;49.400;8.670;2023-02-24T07:31:52;15.27;;;9.43;;
12650;SDS011;6390;49.400;8.670;2023-02-24T07:34:19;17.75;;;9.45;;
12650;SDS011;6390;49.400;8.670;2023-02-24T07:36:48;16.90;;;9.25;;
12650;SDS011;6390;49.400;8.670;2023-02-24T07:39:18;18.63;;;9.90;;
12650;SDS011;6390;49.400;8.670;2023-02-24T07:41:47;16.73;;;9.55;;
12650;SDS011;6390;49.400;8.670;2023-02-24T07:44:16;17.35;;;9.73;;
12650;SDS011;6390;49.400;8.670;2023-02-24T07:46:44;18.20;;;9.45;;
12650;SDS011;6390;49.400;8.670;2023-02-24T07:49:13;17.23;;;9.40;;
12650;SDS011;6390;49.400;8.670;2023-02-24T07:51:43;18.17;;;9.32;;
12650;SDS011;6390;49.400;8.670;2023-02-24T07:54:11;16.65;;;9.05;;
12650;SDS011;6390;49.400;8.670;2023-02-24T07:56:39;17.85;;;8.88;;
12650;SDS011;6390;49.400;8.670;2023-02-24T07:59:20;17.83;;;9.63;;
12650;SDS011;6390;49.400;8.670;2023-02-24T08:01:49;16.67;;;9.80;;
12650;SDS011;6390;49.400;8.670;2023-02-24T08:04:19;17.98;;;9.85;;
12650;SDS011;6390;49.400;8.670;2023-02-24T08:06:49;15.73;;;9.38;;
12650;SDS011;6390;49.400;8.670;2023-02-24T08:09:20;16.30;;;10.05;;
12650;SDS011;6390;49.400;8.670;2023-02-24T08:12:07;19.23;;;10.43;;
12650;SDS011;6390;49.400;8.670;2023-02-24T08:14:34;19.33;;;9.77;;
12650;SDS011;6390;49.400;8.670;2023-02-24T08:17:08;17.63;;;9.32;;
12650;SDS011;6390;49.400;8.670;2023-02-24T08:19:43;17.15;;;9.85;;
12650;SDS011;6390;49.400;8.670;2023-02-24T08:22:12;17.30;;;10.07;;
12650;SDS011;6390;49.400;8.670;2023-02-24T08:27:20;17.83;;;9.68;;
12650;SDS011;6390;49.400;8.670;2023-02-24T08:29:49;16.90;;;10.35;;
12650;SDS011;6390;49.400;8.670;2023-02-24T08:32:24;16.13;;;9.82;;
12650;SDS011;6390;49.400;8.670;2023-02-24T08:35:02;15.45;;;10.05;;
12650;SDS011;6390;49.400;8.670;2023-02-24T08:37:38;18.38;;;10.25;;
12650;SDS011;6390;49.400;8.670;2023-02-24T08:40:13;16.30;;;9.65;;
12650;SDS011;6390;49.400;8.670;2023-02-24T08:42:58;16.95;;;10.48;;
12650;SDS011;6390;49.400;8.670;2023-02-24T08:45:47;15.73;;;9.85;;
12650;SDS011;6390;49.400;8.670;2023-02-24T08:48:20;17.75;;;10.68;;
12650;SDS011;6390;49.400;8.670;2023-02-24T08:50:57;21.05;;;11.35;;
12650;SDS011;6390;49.400;8.670;2023-02-24T08:53:26;20.05;;;10.80;;
12650;SDS011;6390;49.400;8.670;2023-02-24T08:55:55;20.30;;;11.93;;
12650;SDS011;6390;49.400;8.670;2023-02-24T08:58:24;18.13;;;11.18;;
12650;SDS011;6390;49.400;8.670;2023-02-24T09:00:51;16.98;;;11.25;;
12650;SDS011;6390;49.400;8.670;2023-02-24T09:03:26;19.30;;;11.65;;
12650;SDS011;6390;49.400;8.670;2023-02-24T09:05:58;18.08;;;11.40;;
12650;SDS011;6390;49.400;8.670;2023-02-24T09:08:32;20.73;;;11.50;;
12650;SDS011;6390;49.400;8.670;2023-02-24T09:11:02;16.95;;;10.55;;
12650;SDS011;6390;49.400;8.670;2023-02-24T09:13:38;17.65;;;10.80;;
12650;SDS011;6390;49.400;8.670;2023-02-24T09:16:23;19.48;;;11.75;;
12650;SDS011;6390;49.400;8.670;2023-02-24T09:18:50;22.10;;;12.63;;
12650;SDS011;6390;49.400;8.670;2023-02-24T09:21:35;18.27;;;11.55;;
12650;SDS011;6390;49.400;8.670;2023-02-24T09:24:22;18.27;;;11.20;;
12650;SDS011;6390;49.400;8.670;2023-02-24T09:26:51;18.58;;;11.88;;
12650;SDS011;6390;49.400;8.670;2023-02-24T09:29:22;18.52;;;11.77;;
12650;SDS011;6390;49.400;8.670;2023-02-24T09:32:01;19.50;;;11.38;;
12650;SDS011;6390;49.400;8.670;2023-02-24T09:34:37;20.08;;;12.18;;
12650;SDS011;6390;49.400;8.670;2023-02-24T09:37:08;19.70;;;12.00;;
12650;SDS011;6390;49.400;8.670;2023-02-24T09:39:51;20.98;;;12.05;;
12650;SDS011;6390;49.400;8.670;2023-02-24T09:42:21;20.88;;;12.55;;
12650;SDS011;6390;49.400;8.670;2023-02-24T09:44:53;20.02;;;12.38;;
12650;SDS011;6390;49.400;8.670;2023-02-24T09:52:47;20.30;;;12.27;;
12650;SDS011;6390;49.400;8.670;2023-02-24T09:55:16;20.15;;;12.25;;
12650;SDS011;6390;49.400;8.670;2023-02-24T09:57:50;17.30;;;11.30;;
12650;SDS011;6390;49.400;8.670;2023-02-24T10:00:49;19.98;;;12.27;;
12650;SDS011;6390;49.400;8.670;2023-02-24T10:03:54;17.63;;;11.38;;
12650;SDS011;6390;49.400;8.670;2023-02-24T10:12:25;17.70;;;10.85;;
12650;SDS011;6390;49.400;8.670;2023-02-24T10:17:45;19.20;;;12.30;;
12650;SDS011;6390;49.400;8.670;2023-02-24T10:20:31;17.63;;;11.85;;
12650;SDS011;6390;49.400;8.670;2023-02-24T10:34:57;15.20;;;10.73;;
12650;SDS011;6390;49.400;8.670;2023-02-24T10:37:25;17.95;;;11.52;;
12650;SDS011;6390;49.400;8.670;2023-02-24T10:40:02;15.70;;;11.13;;
12650;SDS011;6390;49.400;8.670;2023-02-24T10:42:36;18.83;;;11.85;;
12650;SDS011;6390;49.400;8.670;2023-02-24T10:47:37;17.80;;;11.65;;
12650;SDS011;6390;49.400;8.670;2023-02-24T10:50:18;18.48;;;11.82;;
12650;SDS011;6390;49.400;8.670;2023-02-24T10:52:54;16.27;;;11.52;;
12650;SDS011;6390;49.400;8.670;2023-02-24T10:55:29;17.05;;;11.10;;
12650;SDS011;6390;49.400;8.670;2023-02-24T11:01:11;18.40;;;11.18;;
12650;SDS011;6390;49.400;8.670;2023-02-24T11:04:07;18.42;;;10.75;;
12650;SDS011;6390;49.400;8.670;2023-02-24T11:07:00;17.10;;;11.30;;
12650;SDS011;6390;49.400;8.670;2023-02-24T11:09:37;17.10;;;11.32;;
12650;SDS011;6390;49.400;8.670;2023-02-24T11:12:20;17.75;;;11.27;;
12650;SDS011;6390;49.400;8.670;2023-02-24T11:15:29;17.67;;;11.07;;
12650;SDS011;6390;49.400;8.670;2023-02-24T11:18:20;16.95;;;10.80;;
12650;SDS011;6390;49.400;8.670;2023-02-24T11:20:56;17.95;;;11.13;;
12650;SDS011;6390;49.400;8.670;2023-02-24T11:23:39;17.73;;;11.07;;
12650;SDS011;6390;49.400;8.670;2023-02-24T11:26:13;18.25;;;10.80;;
12650;SDS011;6390;49.400;8.670;2023-02-24T11:28:46;18.67;;;11.30;;
12650;SDS011;6390;49.400;8.670;2023-02-24T11:32:23;16.85;;;11.40;;
12650;SDS011;6390;49.400;8.670;2023-02-24T11:34:53;17.65;;;11.20;;
12650;SDS011;6390;49.400;8.670;2023-02-24T11:37:42;15.35;;;10.23;;
12650;SDS011;6390;49.400;8.670;2023-02-24T11:40:19;18.10;;;10.93;;
12650;SDS011;6390;49.400;8.670;2023-02-24T11:48:20;19.75;;;12.43;;
12650;SDS011;6390;49.400;8.670;2023-02-24T11:50:53;17.27;;;11.43;;
12650;SDS011;6390;49.400;8.670;2023-02-24T12:01:34;18.50;;;11.02;;
12650;SDS011;6390;49.400;8.670;2023-02-24T12:04:09;16.52;;;10.52;;
12650;SDS011;6390;49.400;8.670;2023-02-24T12:15:32;17.70;;;10.50;;
12650;SDS011;6390;49.400;8.670;2023-02-24T12:23:44;15.18;;;9.50;;
12650;SDS011;6390;49.400;8.670;2023-02-24T12:26:22;17.13;;;9.55;;
12650;SDS011;6390;49.400;8.670;2023-02-24T12:29:15;16.88;;;10.63;;
12650;SDS011;6390;49.400;8.670;2023-02-24T12:32:08;13.07;;;8.77;;
12650;SDS011;6390;49.400;8.670;2023-02-24T12:38:01;15.07;;;8.85;;
12650;SDS011;6390;49.400;8.670;2023-02-24T12:46:32;13.88;;;8.25;;
12650;SDS011;6390;49.400;8.670;2023-02-24T12:52:21;13.77;;;9.13;;
12650;SDS011;6390;49.400;8.670;2023-02-24T12:55:17;11.27;;;7.20;;
12650;SDS011;6390;49.400;8.670;2023-02-24T12:58:09;13.45;;;8.05;;
12650;SDS011;6390;49.400;8.670;2023-02-24T13:03:26;10.93;;;7.45;;
12650;SDS011;6390;49.400;8.670;2023-02-24T13:06:17;12.55;;;7.72;;
12650;SDS011;6390;49.400;8.670;2023-02-24T13:09:11;11.65;;;7.68;;
12650;SDS011;6390;49.400;8.670;2023-02-24T13:12:17;10.77;;;6.75;;
12650;SDS011;6390;49.400;8.670;2023-02-24T13:14:58;11.63;;;7.20;;
12650;SDS011;6390;49.400;8.670;2023-02-24T13:17:24;12.63;;;7.53;;
12650;SDS011;6390;49.400;8.670;2023-02-24T13:19:52;12.00;;;8.20;;
12650;SDS011;6390;49.400;8.670;2023-02-24T13:22:29;11.05;;;7.60;;
12650;SDS011;6390;49.400;8.670;2023-02-24T13:25:08;11.13;;;7.15;;
12650;SDS011;6390;49.400;8.670;2023-02-24T13:27:53;11.98;;;7.07;;
12650;SDS011;6390;49.400;8.670;2023-02-24T13:30:26;9.48;;;6.53;;
12650;SDS011;6390;49.400;8.670;2023-02-24T13:33:04;10.48;;;6.85;;
12650;SDS011;6390;49.400;8.670;2023-02-24T13:35:40;10.82;;;6.88;;
12650;SDS011;6390;49.400;8.670;2023-02-24T13:38:08;10.52;;;6.95;;
12650;SDS011;6390;49.400;8.670;2023-02-24T13:41:34;9.75;;;6.43;;
12650;SDS011;6390;49.400;8.670;2023-02-24T13:43:52;10.27;;;7.05;;
12650;SDS011;6390;49.400;8.670;2023-02-24T13:46:26;11.02;;;6.55;;
12650;SDS011;6390;49.400;8.670;2023-02-24T13:51:56;10.82;;;6.65;;
12650;SDS011;6390;49.400;8.670;2023-02-24T13:57:39;8.93;;;5.65;;
12650;SDS011;6390;49.400;8.670;2023-02-24T14:03:21;9.07;;;6.25;;
12650;SDS011;6390;49.400;8.670;2023-02-24T14:05:51;8.00;;;5.78;;
12650;SDS011;6390;49.400;8.670;2023-02-24T14:08:24;9.27;;;5.95;;
12650;SDS011;6390;49.400;8.670;2023-02-24T14:10:56;8.77;;;5.50;;
12650;SDS011;6390;49.400;8.670;2023-02-24T14:13:28;5.95;;;4.80;;
12650;SDS011;6390;49.400;8.670;2023-02-24T14:15:58;6.35;;;4.25;;
12650;SDS011;6390;49.400;8.670;2023-02-24T14:18:29;7.13;;;5.18;;
12650;SDS011;6390;49.400;8.670;2023-02-24T14:20:56;7.45;;;5.05;;
12650;SDS011;6390;49.400;8.670;2023-02-24T14:23:24;5.07;;;3.97;;
12650;SDS011;6390;49.400;8.670;2023-02-24T14:25:56;5.97;;;4.28;;
12650;SDS011;6390;49.400;8.670;2023-02-24T14:28:26;6.32;;;3.70;;
12650;SDS011;6390;49.400;8.670;2023-02-24T14:30:57;4.78;;;3.58;;
12650;SDS011;6390;49.400;8.670;2023-02-24T14:33:29;5.55;;;3.80;;
12650;SDS011;6390;49.400;8.670;2023-02-24T14:36:00;5.47;;;4.20;;
12650;SDS011;6390;49.400;8.670;2023-02-24T14:38:30;4.35;;;3.30;;
12650;SDS011;6390;49.400;8.670;2023-02-24T14:41:16;4.97;;;3.70;;
12650;SDS011;6390;49.400;8.670;2023-02-24T14:43:47;4.35;;;3.42;;
12650;SDS011;6390;49.400;8.670;2023-02-24T14:46:14;6.90;;;4.05;;
12650;SDS011;6390;49.400;8.670;2023-02-24T14:48:41;4.88;;;3.67;;
12650;SDS011;6390;49.400;8.670;2023-02-24T14:51:14;5.80;;;3.90;;
12650;SDS011;6390;49.400;8.670;2023-02-24T14:54:00;4.28;;;3.28;;
12650;SDS011;6390;49.400;8.670;2023-02-24T14:56:31;5.43;;;3.90;;
12650;SDS011;6390;49.400;8.670;2023-02-24T14:59:03;4.90;;;3.50;;
12650;SDS011;6390;49.400;8.670;2023-02-24T15:01:42;4.43;;;3.67;;
12650;SDS011;6390;49.400;8.670;2023-02-24T15:04:18;4.47;;;3.58;;
12650;SDS011;6390;49.400;8.670;2023-02-24T15:06:51;4.03;;;3.20;;
12650;SDS011;6390;49.400;8.670;2023-02-24T15:09:18;4.22;;;3.47;;
12650;SDS011;6390;49.400;8.670;2023-02-24T15:11:48;6.72;;;3.85;;
12650;SDS011;6390;49.400;8.670;2023-02-24T15:14:18;3.67;;;3.28;;
12650;SDS011;6390;49.400;8.670;2023-02-24T15:16:47;3.90;;;3.25;;
12650;SDS011;6390;49.400;8.670;2023-02-24T15:19:35;4.18;;;3.30;;
12650;SDS011;6390;49.400;8.670;2023-02-24T15:24:52;4.43;;;3.15;;
12650;SDS011;6390;49.400;8.670;2023-02-24T15:30:24;4.07;;;2.92;;
12650;SDS011;6390;49.400;8.670;2023-02-24T15:32:59;5.57;;;3.05;;
12650;SDS011;6390;49.400;8.670;2023-02-24T15:35:54;3.85;;;3.10;;
12650;SDS011;6390;49.400;8.670;2023-02-24T15:38:23;4.40;;;3.55;;
12650;SDS011;6390;49.400;8.670;2023-02-24T15:41:00;3.90;;;3.10;;
12650;SDS011;6390;49.400;8.670;2023-02-24T15:43:36;4.22;;;2.83;;
12650;SDS011;6390;49.400;8.670;2023-02-24T15:46:30;3.42;;;2.80;;
12650;SDS011;6390;49.400;8.670;2023-02-24T15:48:59;3.95;;;3.08;;
12650;SDS011;6390;49.400;8.670;2023-02-24T15:51:30;3.72;;;3.17;;
12650;SDS011;6390;49.400;8.670;2023-02-24T15:54:00;4.05;;;3.03;;
12650;SDS011;6390;49.400;8.670;2023-02-24T15:56:29;3.88;;;3.05;;
12650;SDS011;6390;49.400;8.670;2023-02-24T15:58:58;4.38;;;3.25;;
12650;SDS011;6390;49.400;8.670;2023-02-24T16:01:26;4.93;;;3.60;;
12650;SDS011;6390;49.400;8.670;2023-02-24T16:03:54;4.55;;;3.50;;
12650;SDS011;6390;49.400;8.670;2023-02-24T16:06:21;3.63;;;3.15;;
12650;SDS011;6390;49.400;8.670;2023-02-24T16:08:48;4.88;;;3.50;;
12650;SDS011;6390;49.400;8.670;2023-02-24T16:11:17;5.82;;;3.45;;
12650;SDS011;6390;49.400;8.670;2023-02-24T16:13:48;4.65;;;3.25;;
12650;SDS011;6390;49.400;8.670;2023-02-24T16:16:19;4.32;;;3.67;;
12650;SDS011;6390;49.400;8.670;2023-02-24T16:18:46;5.47;;;3.60;;
12650;SDS011;6390;49.400;8.670;2023-02-24T16:21:12;4.47;;;3.53;;
12650;SDS011;6390;49.400;8.670;2023-02-24T16:23:38;4.70;;;3.22;;
12650;SDS011;6390;49.400;8.670;2023-02-24T16:26:05;5.35;;;3.42;;
12650;SDS011;6390;49.400;8.670;2023-02-24T16:28:41;4.80;;;3.30;;
12650;SDS011;6390;49.400;8.670;2023-02-24T16:31:09;4.03;;;3.25;;
12650;SDS011;6390;49.400;8.670;2023-02-24T16:33:35;4.25;;;3.45;;
12650;SDS011;6390;49.400;8.670;2023-02-24T16:36:01;4.88;;;3.72;;
12650;SDS011;6390;49.400;8.670;2023-02-24T16:38:28;4.22;;;3.58;;
12650;SDS011;6390;49.400;8.670;2023-02-24T16:40:54;5.22;;;3.58;;
12650;SDS011;6390;49.400;8.670;2023-02-24T16:43:20;5.20;;;3.95;;
12650;SDS011;6390;49.400;8.670;2023-02-24T16:45:47;5.20;;;3.90;;
12650;SDS011;6390;49.400;8.670;2023-02-24T16:48:15;4.97;;;3.45;;
12650;SDS011;6390;49.400;8.670;2023-02-24T16:50:46;6.07;;;3.70;;
12650;SDS011;6390;49.400;8.670;2023-02-24T16:53:13;4.78;;;3.42;;
12650;SDS011;6390;49.400;8.670;2023-02-24T16:55:42;4.88;;;3.70;;
12650;SDS011;6390;49.400;8.670;2023-02-24T16:58:09;5.32;;;3.78;;
12650;SDS011;6390;49.400;8.670;2023-02-24T17:00:37;4.15;;;3.58;;
12650;SDS011;6390;49.400;8.670;2023-02-24T17:03:05;6.25;;;3.90;;
12650;SDS011;6390;49.400;8.670;2023-02-24T17:05:49;5.60;;;3.75;;
12650;SDS011;6390;49.400;8.670;2023-02-24T17:08:16;4.65;;;3.38;;
12650;SDS011;6390;49.400;8.670;2023-02-24T17:10:43;6.80;;;3.90;;
12650;SDS011;6390;49.400;8.670;2023-02-24T17:13:11;4.65;;;3.58;;
12650;SDS011;6390;49.400;8.670;2023-02-24T17:15:39;5.00;;;3.88;;
12650;SDS011;6390;49.400;8.670;2023-02-24T17:18:06;5.15;;;3.72;;
12650;SDS011;6390;49.400;8.670;2023-02-24T17:20:33;4.88;;;3.70;;
12650;SDS011;6390;49.400;8.670;2023-02-24T17:23:00;4.50;;;3.40;;
12650;SDS011;6390;49.400;8.670;2023-02-24T17:25:27;5.25;;;3.50;;
12650;SDS011;6390;49.400;8.670;2023-02-24T17:27:55;4.72;;;3.58;;
12650;SDS011;6390;49.400;8.670;2023-02-24T17:30:32;5.20;;;3.90;;
12650;SDS011;6390;49.400;8.670;2023-02-24T17:32:59;5.03;;;3.58;;
12650;SDS011;6390;49.400;8.670;2023-02-24T17:35:27;4.47;;;3.33;;
12650;SDS011;6390;49.400;8.670;2023-02-24T17:37:54;4.13;;;3.15;;
12650;SDS011;6390;49.400;8.670;2023-02-24T17:40:20;4.72;;;3.40;;
12650;SDS011;6390;49.400;8.670;2023-02-24T17:42:46;4.93;;;3.50;;
12650;SDS011;6390;49.400;8.670;2023-02-24T17:45:13;5.18;;;3.60;;